createdAt,value
2024-05-09T00:03:52.592Z,11.83
2024-05-09T00:13:52.779Z,11.83
2024-05-09T00:23:52.620Z,11.84
2024-05-09T00:33:52.672Z,11.84
2024-05-09T00:43:52.730Z,11.86
2024-05-09T00:53:52.700Z,11.85
2024-05-09T01:03:52.730Z,11.82
2024-05-09T01:13:52.579Z,11.75
2024-05-09T01:23:52.712Z,11.69
2024-05-09T01:33:52.596Z,11.7
2024-05-09T01:43:52.601Z,11.7
2024-05-09T01:53:52.533Z,11.73
2024-05-09T02:03:52.832Z,11.66
2024-05-09T02:13:52.549Z,11.65
2024-05-09T02:23:52.571Z,11.6
2024-05-09T02:33:52.839Z,11.51
2024-05-09T02:43:52.679Z,11.54
2024-05-09T02:53:52.495Z,11.5
2024-05-09T03:03:52.713Z,11.52
2024-05-09T03:13:52.579Z,11.51
2024-05-09T03:23:52.705Z,11.54
2024-05-09T03:33:52.644Z,11.53
2024-05-09T03:43:52.705Z,11.46
2024-05-09T03:53:52.492Z,11.42
2024-05-09T04:03:52.623Z,11.43
2024-05-09T04:13:52.619Z,11.45
2024-05-09T04:23:52.436Z,11.52
2024-05-09T04:33:52.548Z,11.4
2024-05-09T04:43:52.495Z,11.37
2024-05-09T04:53:52.567Z,11.32
2024-05-09T05:03:53.002Z,11.4
2024-05-09T05:13:52.533Z,11.51
2024-05-09T05:23:52.490Z,11.76
2024-05-09T05:33:52.484Z,11.85
2024-05-09T05:43:52.467Z,11.92
2024-05-09T05:53:52.546Z,12.13
2024-05-09T06:03:52.562Z,12.31
2024-05-09T06:13:52.403Z,12.54
2024-05-09T06:23:52.498Z,13.08
2024-05-09T06:33:52.505Z,13.75
2024-05-09T06:43:52.515Z,14.12
2024-05-09T06:53:52.489Z,14.33
2024-05-09T07:03:52.293Z,14.27
2024-05-09T07:13:52.489Z,15.11
2024-05-09T07:23:52.347Z,15.04
2024-05-09T07:33:52.430Z,14.99
2024-05-09T07:43:52.212Z,15.35
2024-05-09T07:53:53.941Z,15.59
2024-05-09T08:03:52.282Z,16.08
2024-05-09T08:13:52.181Z,16.13
2024-05-09T08:23:52.306Z,16.41
2024-05-09T08:33:52.504Z,16.52
2024-05-09T08:43:52.366Z,17.05
2024-05-09T08:53:52.347Z,17.37
2024-05-09T09:03:52.388Z,17.22
2024-05-09T09:13:52.403Z,17.28
2024-05-09T09:33:52.517Z,18.3
2024-05-09T09:43:52.282Z,18.78
2024-05-09T09:53:52.223Z,18.81
2024-05-09T10:03:52.217Z,19.17
2024-05-09T10:13:52.316Z,19.61
2024-05-09T10:23:52.303Z,19.5
2024-05-09T10:33:52.717Z,20.22
2024-05-09T10:43:52.269Z,20.47
2024-05-09T10:53:52.158Z,20.88
2024-05-09T11:03:52.182Z,21.71
2024-05-09T11:13:52.124Z,21.89
2024-05-09T11:23:52.200Z,22.67
2024-05-09T11:33:52.159Z,22.61
2024-05-09T11:43:52.059Z,21.48
2024-05-09T11:53:52.119Z,21.51
2024-05-09T12:03:52.328Z,22.42
2024-05-09T12:13:52.241Z,22.81
2024-05-09T12:23:52.049Z,22.14
2024-05-09T12:33:52.163Z,21.24
2024-05-09T12:43:52.128Z,20.83
2024-05-09T12:53:52.036Z,20.94
2024-05-09T13:03:52.244Z,22.91
2024-05-09T13:13:52.082Z,21.75
2024-05-09T13:23:52.036Z,22.02
2024-05-09T13:33:52.133Z,20.87
2024-05-09T13:43:52.015Z,21.85
2024-05-09T13:53:51.990Z,21.64
2024-05-09T14:03:52.038Z,22.3
2024-05-09T14:13:51.974Z,22.01
2024-05-09T14:23:51.936Z,22.07
2024-05-09T14:33:52.184Z,21.54
2024-05-09T14:43:51.907Z,21.26
2024-05-09T14:53:51.917Z,20.93
2024-05-09T15:03:52.104Z,22.03
2024-05-09T15:13:51.862Z,22.65
2024-05-09T15:23:51.902Z,22.55
2024-05-09T15:33:51.899Z,22.73
2024-05-09T15:43:51.763Z,23.07
2024-05-09T15:53:51.815Z,22.03
2024-05-09T16:03:52.182Z,21.67
2024-05-09T16:13:51.748Z,21.86
2024-05-09T16:23:51.758Z,22.1
2024-05-09T16:33:51.864Z,22.55
2024-05-09T16:43:51.858Z,22.25
2024-05-09T16:53:51.840Z,21.71
2024-05-09T17:03:51.894Z,21.15
2024-05-09T17:13:51.730Z,19.95
2024-05-09T17:23:51.800Z,19.45
2024-05-09T17:33:52.013Z,18.85
2024-05-09T17:43:51.676Z,18.34
2024-05-09T17:53:51.699Z,17.81
2024-05-09T18:03:51.862Z,17.39
2024-05-09T18:13:51.688Z,17.01
2024-05-09T18:23:51.724Z,16.31
2024-05-09T18:33:52.048Z,15.6
2024-05-09T18:43:51.748Z,14.86
2024-05-09T19:03:51.703Z,13.93
2024-05-09T19:13:51.800Z,13.7
2024-05-09T19:23:52.216Z,13.16
2024-05-09T19:33:51.811Z,12.87
2024-05-09T19:43:51.645Z,12.46
2024-05-09T19:53:51.606Z,12.29
2024-05-09T20:03:51.728Z,12.09
2024-05-09T20:13:51.675Z,11.92
2024-05-09T20:23:51.549Z,11.58
2024-05-09T20:33:51.662Z,11.27
2024-05-09T20:43:51.567Z,11.14
2024-05-09T20:53:51.665Z,11.09
2024-05-09T21:03:51.709Z,11.03
2024-05-09T21:13:51.591Z,10.87
2024-05-09T21:23:51.553Z,10.69
2024-05-09T21:33:51.694Z,10.52
2024-05-09T21:43:51.577Z,10.38
2024-05-09T21:53:51.529Z,10.31
2024-05-09T22:03:51.757Z,10.18
2024-05-09T22:13:51.573Z,9.94
2024-05-09T22:23:51.588Z,9.65
2024-05-09T22:33:51.610Z,9.5
2024-05-09T22:43:51.585Z,9.35
2024-05-09T22:53:51.522Z,9.18
2024-05-09T23:03:51.665Z,8.89
2024-05-09T23:13:51.559Z,8.61
2024-05-09T23:23:51.457Z,8.44
2024-05-09T23:33:51.764Z,8.28
2024-05-09T23:43:51.586Z,8.16
2024-05-09T23:53:51.495Z,8.04
